Time;durP1;ratioP1;P1;durP2;ratioP2;P2;SDS_P1;SDS_P2;PMS_P1;PMS_P2;Temp;Humidity;BMP_temperature;BMP_pressure;BME280_temperature;BME280_humidity;BME280_pressure;Samples;Min_cycle;Max_cycle;Signal;HPM_P1;HPM_P2
2023/07/21 11:36:34;;;;;;;;;;;;;;;;;;4865000;27;7597916;-96
2023/07/21 11:39:11;;;;;;;;;;;;;;;;;;5123597;28;19920;-96
2023/07/21 11:41:59;;;;;;;;;;;;;;;;;;5107413;28;19916;-96
2023/07/21 12:38:32;;;;;;;;;;;;;;;;;;5005682;28;19928;-92
2023/07/21 12:40:57;;;;;;;;;;;;;;;;;;5017984;28;19926;-93
2023/07/21 12:43:23;;;;;;;;;;;;;;;;;;5014326;28;19925;-93
2023/07/21 12:45:48;;;;;;;;;;;;;;;;;;5016236;28;19918;-94
2023/07/21 12:48:14;;;;;;;;;;;;;;;;;;5002825;28;19924;-95
2023/07/21 12:50:40;;;;;;;;;;;;;;;;;;5002304;28;19924;-91
2023/07/21 12:53:06;;;;;;;;;;;;;;;;;;5007418;28;20004;-96
2023/07/21 12:55:34;;;;;;;;;;;;;;;;;;5007869;28;19921;-91
2023/07/21 12:58:00;;;;;;;;;;;;;;;;;;5158157;23;20339;-94
2023/07/21 13:00:25;;;;;;;;;;;;;;;;;;5019532;28;19917;-93
2023/07/21 13:02:51;;;;;;;;;;;;;;;;;;5019702;28;20286;-94
2023/07/21 13:05:17;;;;;;;;;;;;;;;;;;5019323;28;19924;-94
2023/07/21 13:07:43;;;;;;;;;;;;;;;;;;5019383;28;20330;-93
2023/07/21 13:10:09;;;;;;;;;;;;;;;;;;5019449;28;19943;-93
2023/07/21 13:12:35;;;;;;;;;;;;;;;;;;5036784;28;19964;-95
2023/07/21 13:15:00;;;;;;;;;;;;;;;;;;5036788;28;19920;-92
2023/07/21 13:17:26;;;;;;;;;;;;;;;;;;5019181;28;19988;-95
2023/07/21 13:19:51;;;;;;;;;;;;;;;;;;5019307;28;19918;-94
2023/07/21 13:22:17;;;;;;;;;;;;;;;;;;5036816;28;19921;-94
2023/07/21 13:24:42;;;;;;;;;;;;;;;;;;5019001;28;20318;-94
2023/07/21 13:27:09;;;;;;;;;;;;;;;;;;5018976;28;20008;-95
2023/07/21 13:29:34;;;;;;;;;;;;;;;;;;5018909;28;19937;-94
2023/07/21 13:32:00;;;;;;;;;;;;;;;;;;5036344;28;19917;-92
2023/07/21 13:34:26;;;;;;;;;;;;;;;;;;5036406;28;19917;-92
2023/07/21 13:36:52;;;;;;;;;;;;;;;;;;5018896;28;19978;-93
2023/07/21 13:39:17;;;;;;;;;;;;;;;;;;5036685;28;19921;-92
2023/07/21 13:41:44;;;;;;;;;;;;;;;;;;5018842;28;19950;-92
2023/07/21 13:44:09;;;;;;;;;;;;;;;;;;5036626;28;19994;-91
2023/07/21 13:46:35;;;;;;;;;;;;;;;;;;5036320;28;19917;-92
2023/07/21 13:49:00;;;;;;;;;;;;;;;;;;5018627;28;20355;-92
2023/07/21 13:51:25;;;;;;;;;;;;;;;;;;5018407;28;19917;-95
2023/07/21 13:53:51;;;;;;;;;;;;;;;;;;5018464;28;19945;-93
2023/07/21 13:56:18;;;;;;;;;;;;;;;;;;5018654;28;19917;-92
2023/07/21 13:58:43;;;;;;;;;;;;;;;;;;5034879;28;19943;-94
2023/07/21 14:01:09;;;;;;;;;;;;;;;;;;5018838;28;20403;-93
2023/07/21 14:03:34;;;;;;;;;;;;;;;;;;5036067;28;19939;-93
2023/07/21 14:06:00;;;;;;;;;;;;;;;;;;5036116;28;20024;-94
2023/07/21 14:08:26;;;;;;;;;;;;;;;;;;5035781;28;19917;-95
2023/07/21 14:10:52;;;;;;;;;;;;;;;;;;5018172;28;19948;-94
2023/07/21 14:13:17;;;;;;;;;;;;;;;;;;5018046;28;20406;-95
2023/07/21 14:15:43;;;;;;;;;;;;;;;;;;5035664;28;20002;-94
2023/07/21 14:18:10;;;;;;;;;;;;;;;;;;5018053;28;19917;-95
2023/07/21 14:20:36;;;;;;;;;;;;;;;;;;5018241;28;19920;-92
2023/07/21 14:23:01;;;;;;;;;;;;;;;;;;5018106;28;19921;-92
2023/07/21 14:25:26;;;;;;;;;;;;;;;;;;5035571;28;19917;-93
2023/07/21 14:27:52;;;;;;;;;;;;;;;;;;5035555;28;20394;-92
2023/07/21 14:30:17;;;;;;;;;;;;;;;;;;5018005;28;20011;-93
2023/07/21 14:32:43;;;;;;;;;;;;;;;;;;5018032;28;20382;-95
2023/07/21 14:35:11;;;;;;;;;;;;;;;;;;5035350;28;20366;-94
2023/07/21 14:37:37;;;;;;;;;;;;;;;;;;5001789;28;19932;-92
2023/07/21 14:40:06;;;;;;;;;;;;;;;;;;5035406;28;19913;-93
2023/07/21 14:42:31;;;;;;;;;;;;;;;;;;5035225;28;20360;-94
2023/07/21 14:44:57;;;;;;;;;;;;;;;;;;5017630;28;20024;-95
2023/07/21 14:47:22;;;;;;;;;;;;;;;;;;5018367;28;19956;-92
2023/07/21 14:49:48;;;;;;;;;;;;;;;;;;5035614;28;20367;-92
2023/07/21 14:52:13;;;;;;;;;;;;;;;;;;5017778;28;20260;-93
2023/07/21 14:54:38;;;;;;;;;;;;;;;;;;5035325;28;20427;-94
2023/07/21 14:57:05;;;;;;;;;;;;;;;;;;5035456;28;19932;-93
2023/07/21 14:59:30;;;;;;;;;;;;;;;;;;5017506;28;19916;-92
2023/07/21 15:01:57;;;;;;;;;;;;;;;;;;5018238;28;19924;-94
2023/07/21 15:04:22;;;;;;;;;;;;;;;;;;5017928;28;19917;-93
2023/07/21 15:06:48;;;;;;;;;;;;;;;;;;5015681;28;19928;-92
2023/07/21 15:09:13;;;;;;;;;;;;;;;;;;5017166;28;19917;-92
2023/07/21 15:11:39;;;;;;;;;;;;;;;;;;5017081;28;19928;-92
2023/07/21 15:14:05;;;;;;;;;;;;;;;;;;5017196;28;20375;-92
2023/07/21 15:16:31;;;;;;;;;;;;;;;;;;5016783;28;19917;-93
2023/07/21 15:18:56;;;;;;;;;;;;;;;;;;5013964;28;19940;-92
2023/07/21 15:21:22;;;;;;;;;;;;;;;;;;5010556;28;20307;-93
2023/07/21 15:23:47;;;;;;;;;;;;;;;;;;5013581;28;19924;-92
2023/07/21 15:26:12;;;;;;;;;;;;;;;;;;5026758;28;19921;-93
2023/07/21 15:28:38;;;;;;;;;;;;;;;;;;5016789;28;20256;-94
2023/07/21 15:31:07;;;;;;;;;;;;;;;;;;5016906;28;19964;-92
2023/07/21 15:33:32;;;;;;;;;;;;;;;;;;5015142;28;19917;-93
2023/07/21 15:35:57;;;;;;;;;;;;;;;;;;5030068;28;19917;-93
2023/07/21 15:38:23;;;;;;;;;;;;;;;;;;5034315;28;20283;-93
2023/07/21 15:40:48;;;;;;;;;;;;;;;;;;5025096;28;19960;-93
2023/07/21 15:43:14;;;;;;;;;;;;;;;;;;5016721;28;20367;-95
2023/07/21 15:45:39;;;;;;;;;;;;;;;;;;5016867;28;19928;-93
2023/07/21 15:48:06;;;;;;;;;;;;;;;;;;5016559;28;19913;-92
2023/07/21 15:50:31;;;;;;;;;;;;;;;;;;5016342;28;19971;-94
2023/07/21 15:52:57;;;;;;;;;;;;;;;;;;5019293;28;19917;-93
2023/07/21 15:55:22;;;;;;;;;;;;;;;;;;4996894;28;20299;-93
2023/07/21 15:57:49;;;;;;;;;;;;;;;;;;4997015;28;19965;-94
2023/07/21 16:00:14;;;;;;;;;;;;;;;;;;4997176;28;19917;-94
2023/07/21 16:02:40;;;;;;;;;;;;;;;;;;4996798;28;20277;-93
2023/07/21 16:05:06;;;;;;;;;;;;;;;;;;5005567;28;19963;-93
2023/07/21 16:07:32;;;;;;;;;;;;;;;;;;5019576;28;19917;-94
2023/07/21 16:09:57;;;;;;;;;;;;;;;;;;5020836;28;20323;-95
2023/07/21 16:12:23;;;;;;;;;;;;;;;;;;5017269;28;20356;-92
2023/07/21 16:14:49;;;;;;;;;;;;;;;;;;5034225;28;19918;-96
2023/07/21 16:17:14;;;;;;;;;;;;;;;;;;5034644;28;19917;-96
2023/07/21 16:19:39;;;;;;;;;;;;;;;;;;5034060;28;19924;-91
2023/07/21 16:22:05;;;;;;;;;;;;;;;;;;5036482;28;19965;-92
2023/07/21 16:24:30;;;;;;;;;;;;;;;;;;5040713;28;19920;-91
2023/07/21 16:26:56;;;;;;;;;;;;;;;;;;5042377;28;20290;-90
2023/07/21 16:29:21;;;;;;;;;;;;;;;;;;5038618;22;19943;-91
2023/07/21 16:31:47;;;;;;;;;;;;;;;;;;5007563;28;19929;-96
2023/07/21 16:34:13;;;;;;;;;;;;;;;;;;5002603;28;19920;-91
2023/07/21 16:36:38;;;;;;;;;;;;;;;;;;5025389;28;19917;-90
2023/07/21 16:39:04;;;;;;;;;;;;;;;;;;5017792;22;19918;-91
2023/07/21 16:41:29;;;;;;;;;;;;;;;;;;5026536;28;19926;-95
2023/07/21 16:43:55;;;;;;;;;;;;;;;;;;5010780;28;19922;-96
2023/07/21 16:46:20;;;;;;;;;;;;;;;;;;5023593;28;19917;-93
2023/07/21 16:48:45;;;;;;;;;;;;;;;;;;5020011;28;19963;-91
2023/07/21 16:51:11;;;;;;;;;;;;;;;;;;5003668;28;20016;-90
2023/07/21 16:53:38;;;;;;;;;;;;;;;;;;5022310;28;19918;-91
2023/07/21 16:56:11;;;;;;;;;;;;;;;;;;5008145;28;19924;-91
2023/07/21 20:09:01;;;;;;;;;;;;;;;;;;5027908;28;19929;-96
2023/07/21 20:11:26;;;;;;;;;;;;;;;;;;5019073;28;19921;-92
2023/07/21 20:13:52;;;;;;;;;;;;;;;;;;5019229;28;19917;-94
2023/07/21 20:16:18;;;;;;;;;;;;;;;;;;5022818;28;20592;-96
2023/07/21 20:18:43;;;;;;;;;;;;;;;;;;5023151;28;19940;-90
2023/07/21 20:21:09;;;;;;;;;;;;;;;;;;5017835;28;20376;-91
2023/07/21 20:23:34;;;;;;;;;;;;;;;;;;5017510;28;19983;-88
2023/07/21 20:26:05;;;;;;;;;;;;;;;;;;5018014;28;19947;-91
2023/07/21 20:28:30;;;;;;;;;;;;;;;;;;5017744;28;19936;-89
2023/07/21 20:30:56;;;;;;;;;;;;;;;;;;5016487;28;20008;-89
2023/07/21 20:33:21;;;;;;;;;;;;;;;;;;5017734;28;19918;-88
2023/07/21 20:35:47;;;;;;;;;;;;;;;;;;5017560;28;19917;-88
2023/07/21 20:38:13;;;;;;;;;;;;;;;;;;5017483;28;19918;-88
2023/07/21 20:40:38;;;;;;;;;;;;;;;;;;5017296;28;19968;-88
2023/07/21 20:43:04;;;;;;;;;;;;;;;;;;5017478;28;20348;-88
2023/07/21 20:45:31;;;;;;;;;;;;;;;;;;5016930;28;19918;-88
2023/07/21 20:47:56;;;;;;;;;;;;;;;;;;5015900;28;19924;-88
2023/07/21 20:50:22;;;;;;;;;;;;;;;;;;5015817;28;20264;-88
2023/07/21 20:52:47;;;;;;;;;;;;;;;;;;5017151;28;19943;-90
2023/07/21 20:55:13;;;;;;;;;;;;;;;;;;5016961;28;19963;-88
2023/07/21 20:57:39;;;;;;;;;;;;;;;;;;5016977;28;19924;-87
2023/07/21 21:00:08;;;;;;;;;;;;;;;;;;5016931;28;19917;-91
2023/07/21 21:02:33;;;;;;;;;;;;;;;;;;5017043;28;19924;-88
2023/07/21 21:04:58;;;;;;;;;;;;;;;;;;5015544;28;19922;-88
2023/07/21 21:07:24;;;;;;;;;;;;;;;;;;5016627;28;19949;-90
2023/07/21 21:09:49;;;;;;;;;;;;;;;;;;5016598;28;19953;-89
2023/07/21 21:12:16;;;;;;;;;;;;;;;;;;5015372;28;19917;-89
2023/07/21 21:14:41;;;;;;;;;;;;;;;;;;5015516;28;19921;-89
2023/07/21 21:17:06;;;;;;;;;;;;;;;;;;5016864;28;19917;-88
2023/07/21 21:19:33;;;;;;;;;;;;;;;;;;5016819;28;19917;-87
2023/07/21 21:21:58;;;;;;;;;;;;;;;;;;5016543;28;19917;-88
2023/07/21 21:24:24;;;;;;;;;;;;;;;;;;5016791;28;19924;-88
2023/07/21 21:26:49;;;;;;;;;;;;;;;;;;5016438;28;20005;-88
2023/07/21 21:29:14;;;;;;;;;;;;;;;;;;5015182;28;20265;-89
2023/07/21 21:31:40;;;;;;;;;;;;;;;;;;5016321;28;19941;-91
2023/07/21 21:34:05;;;;;;;;;;;;;;;;;;5016248;28;19918;-88
2023/07/21 21:36:30;;;;;;;;;;;;;;;;;;5014821;28;19956;-87
2023/07/21 21:38:57;;;;;;;;;;;;;;;;;;5016437;28;19925;-89
2023/07/21 21:41:22;;;;;;;;;;;;;;;;;;5015223;28;20335;-89
2023/07/21 21:43:47;;;;;;;;;;;;;;;;;;5016192;28;19952;-90
2023/07/21 21:46:13;;;;;;;;;;;;;;;;;;5015194;28;19917;-91
